Humidity-temperature Sensor

Selected Measurement Type: Air Temperature

 
Air Temperature [°C]     6 entries per hour
Showing data from 3/19/2016 (00:00:00 Z) to 3/12/2016 (20:50:00 Z)
Previous Next [ Day | 3-Days | 7-Days ]
First Last
Prev [ Day | 3-Days | 7-Days ] Next
First Last

Start Time:     :
End Time:     :     
Time (in GMT) :00 :50 :40 :30 :20 :10
Previous Next [ Day | 3-Days | 7-Days ]
First Last
Prev [ Day | 3-Days | 7-Days ] Next
First Last


123 => good data
MM => data is determined as missing
-- => data not received/configured
Back to Top Back to Top
3/19/2016 00:00 to 23:10 27.47 27.51 27.54 27.59 27.59 27.58
3/18/2016 23:00 to 22:10 27.58 27.51 27.52 27.50 27.50 27.48
3/18/2016 22:00 to 21:10 27.45 27.43 27.50 27.49 27.46 27.50
3/18/2016 21:00 to 20:10 27.39 27.41 27.32 27.41 27.30 27.41
3/18/2016 20:00 to 19:10 27.30 27.25 27.29 27.33 27.29 27.36
3/18/2016 19:00 to 18:10 27.29 27.28 27.30 27.27 27.24 27.29
3/18/2016 18:00 to 17:10 27.19 27.22 27.24 27.21 27.16 27.20
3/18/2016 17:00 to 16:10 27.19 27.23 27.24 27.26 27.25 27.24
3/18/2016 16:00 to 15:10 27.23 27.21 27.19 27.28 27.19 27.21
3/18/2016 15:00 to 14:10 27.19 27.16 27.14 27.16 27.14 27.06
3/18/2016 14:00 to 13:10 27.12 27.13 27.17 27.12 27.01 27.02
3/18/2016 13:00 to 12:10 26.97 26.86 26.72 26.66 26.72 26.68
3/18/2016 12:00 to 11:10 26.66 26.69 26.68 26.69 26.67 26.63
3/18/2016 11:00 to 10:10 26.67 26.69 26.70 26.68 26.72 26.77
3/18/2016 10:00 to 9:10 26.67 26.74 26.67 26.77 26.72 26.75
3/18/2016 09:00 to 8:10 26.74 26.72 26.72 26.79 26.75 26.76
3/18/2016 08:00 to 7:10 26.79 26.88 26.80 26.92 26.90 26.99
3/18/2016 07:00 to 6:10 27.01 27.03 27.08 27.08 27.18 27.17
3/18/2016 06:00 to 5:10 27.23 27.19 27.23 27.19 27.22 27.24
3/18/2016 05:00 to 4:10 27.30 27.39 27.39 27.42 27.40 27.44
3/18/2016 04:00 to 3:10 27.44 27.47 27.43 27.43 27.45 27.45
3/18/2016 03:00 to 2:10 27.44 27.43 27.40 27.35 27.33 27.34
3/18/2016 02:00 to 1:10 27.34 27.39 27.37 27.32 27.40 27.40
3/18/2016 01:00 to 0:10 27.39 27.32 27.42 27.39 27.43 27.44
3/18/2016 00:00 to 23:10 27.45 27.49 27.43 27.43 27.45 27.47
3/17/2016 23:00 to 22:10 27.54 27.44 27.46 27.40 27.39 27.42
3/17/2016 22:00 to 21:10 27.40 27.38 27.36 27.38 27.32 27.33
3/17/2016 21:00 to 20:10 27.29 27.36 27.34 27.27 27.27 27.37
3/17/2016 20:00 to 19:10 27.31 27.35 27.34 27.26 27.24 27.36
3/17/2016 19:00 to 18:10 27.26 27.27 27.25 27.23 27.25 27.28
3/17/2016 18:00 to 17:10 27.30 27.24 27.26 27.26 27.22 27.20
3/17/2016 17:00 to 16:10 27.25 27.31 27.36 27.30 27.35 27.27
3/17/2016 16:00 to 15:10 27.33 27.29 27.31 27.29 27.35 27.22
3/17/2016 15:00 to 14:10 27.30 27.27 27.32 27.36 27.30 27.33
3/17/2016 14:00 to 13:10 27.24 27.37 27.25 27.13 27.16 27.03
3/17/2016 13:00 to 12:10 27.06 26.99 26.94 26.87 26.94 26.95
3/17/2016 12:00 to 11:10 26.92 26.98 26.95 26.93 26.94 26.98
3/17/2016 11:00 to 10:10 26.95 27.01 26.93 26.98 26.95 27.00
3/17/2016 10:00 to 9:10 26.98 26.91 26.93 26.95 26.92 26.92
3/17/2016 09:00 to 8:10 26.93 26.90 26.98 26.95 26.98 26.97
3/17/2016 08:00 to 7:10 26.97 27.01 27.01 27.10 27.06 27.09
3/17/2016 07:00 to 6:10 27.06 27.13 27.19 27.15 27.22 27.29
3/17/2016 06:00 to 5:10 27.22 27.20 27.29 27.26 27.38 27.41
3/17/2016 05:00 to 4:10 27.36 27.48 27.53 27.48 27.54 27.54
3/17/2016 04:00 to 3:10 27.51 27.50 27.55 27.54 27.53 27.56
3/17/2016 03:00 to 2:10 27.55 27.58 27.58 27.57 27.61 27.60
3/17/2016 02:00 to 1:10 27.60 27.65 27.62 27.64 27.70 27.67
3/17/2016 01:00 to 0:10 27.64 27.74 27.65 27.71 27.68 27.71
3/17/2016 00:00 to 23:10 27.70 27.73 27.67 27.75 27.79 27.76
3/16/2016 23:00 to 22:10 27.82 27.71 27.80 27.80 27.75 27.70
3/16/2016 22:00 to 21:10 27.70 27.74 27.70 27.68 27.67 27.65
3/16/2016 21:00 to 20:10 27.65 27.65 27.64 27.73 27.77 27.71
3/16/2016 20:00 to 19:10 27.68 27.64 27.63 27.57 27.61 27.61
3/16/2016 19:00 to 18:10 27.67 27.58 27.48 27.49 27.54 27.52
3/16/2016 18:00 to 17:10 27.59 27.68 27.51 27.52 27.53 27.49
3/16/2016 17:00 to 16:10 27.45 27.41 27.44 27.43 27.41 27.43
3/16/2016 16:00 to 15:10 27.50 27.47 27.54 27.39 27.42 27.44
3/16/2016 15:00 to 14:10 27.45 27.51 27.48 27.50 27.48 27.49
3/16/2016 14:00 to 13:10 27.41 27.42 27.37 27.30 27.08 27.02
3/16/2016 13:00 to 12:10 26.93 27.04 26.99 26.96 26.96 26.92
3/16/2016 12:00 to 11:10 26.99 26.96 26.98 27.01 27.00 26.98
3/16/2016 11:00 to 10:10 26.92 27.02 26.93 27.01 26.95 27.01
3/16/2016 10:00 to 9:10 27.04 27.10 27.07 27.05 27.05 27.06
3/16/2016 09:00 to 8:10 27.01 27.22 27.09 27.12 27.13 27.21
3/16/2016 08:00 to 7:10 27.10 27.13 27.16 27.17 27.18 27.19
3/16/2016 07:00 to 6:10 27.19 27.20 27.21 27.27 27.22 27.35
3/16/2016 06:00 to 5:10 27.34 27.33 27.37 27.36 27.45 27.40
3/16/2016 05:00 to 4:10 27.38 27.41 27.35 27.43 27.38 27.46
3/16/2016 04:00 to 3:10 27.45 27.46 27.45 27.44 27.41 27.45
3/16/2016 03:00 to 2:10 27.48 27.41 27.43 27.49 27.45 27.46
3/16/2016 02:00 to 1:10 27.45 27.50 27.51 27.41 27.44 27.42
3/16/2016 01:00 to 0:10 27.40 27.38 27.38 27.38 27.34 27.38
3/16/2016 00:00 to 23:10 27.46 27.48 27.50 27.50 27.43 27.51
3/15/2016 23:00 to 22:10 27.54 27.49 27.47 27.48 27.49 27.55
3/15/2016 22:00 to 21:10 27.49 27.49 27.47 27.49 27.52 27.54
3/15/2016 21:00 to 20:10 27.58 27.62 27.56 27.67 27.59 27.53
3/15/2016 20:00 to 19:10 27.44 27.51 27.42 27.39 27.41 27.38
3/15/2016 19:00 to 18:10 27.39 27.33 27.35 27.33 27.38 27.42
3/15/2016 18:00 to 17:10 27.34 27.32 27.42 27.39 27.42 27.44
3/15/2016 17:00 to 16:10 27.42 27.49 27.34 27.40 27.35 27.37
3/15/2016 16:00 to 15:10 27.39 27.38 27.38 27.42 27.40 27.34
3/15/2016 15:00 to 14:10 27.39 27.30 27.46 27.35 27.37 27.46
3/15/2016 14:00 to 13:10 27.37 27.34 27.42 27.38 27.21 27.30
3/15/2016 13:00 to 12:10 27.24 27.18 27.15 27.10 27.16 27.11
3/15/2016 12:00 to 11:10 27.11 27.12 27.13 27.05 27.10 27.16
3/15/2016 11:00 to 10:10 27.15 27.09 27.08 27.05 27.10 27.11
3/15/2016 10:00 to 9:10 27.18 27.16 27.10 27.10 27.10 27.11
3/15/2016 09:00 to 8:10 27.10 27.15 27.09 27.15 27.20 27.17
3/15/2016 08:00 to 7:10 27.17 27.19 27.28 27.19 27.27 27.29
3/15/2016 07:00 to 6:10 27.31 27.30 27.28 27.34 27.38 27.31
3/15/2016 06:00 to 5:10 27.37 27.40 27.39 27.41 27.43 27.48
3/15/2016 05:00 to 4:10 27.45 27.53 27.47 27.50 27.50 27.51
3/15/2016 04:00 to 3:10 27.52 27.57 27.60 27.67 27.57 27.64
3/15/2016 03:00 to 2:10 27.65 27.59 27.64 27.63 27.63 27.73
3/15/2016 02:00 to 1:10 27.68 27.71 27.63 27.67 27.67 27.66
3/15/2016 01:00 to 0:10 27.75 27.75 27.72 27.70 27.71 27.76
3/15/2016 00:00 to 23:10 27.79 27.81 27.87 27.91 27.91 27.80
3/14/2016 23:00 to 22:10 27.85 27.92 27.93 27.86 27.85 27.83
3/14/2016 22:00 to 21:10 27.78 27.78 27.78 27.74 27.78 27.70
3/14/2016 21:00 to 20:10 27.72 27.71 27.68 27.67 27.67 27.77
3/14/2016 20:00 to 19:10 27.67 27.71 27.67 27.76 27.72 27.79
3/14/2016 19:00 to 18:10 27.73 27.70 27.75 27.77 27.72 27.79
3/14/2016 18:00 to 17:10 27.70 27.73 27.68 27.66 27.62 27.67
3/14/2016 17:00 to 16:10 27.66 27.69 27.73 27.69 27.67 27.67
3/14/2016 16:00 to 15:10 27.65 27.68 27.67 27.65 27.69 27.63
3/14/2016 15:00 to 14:10 27.73 27.67 27.62 27.67 27.70 27.60
3/14/2016 14:00 to 13:10 27.72 27.58 27.53 27.55 27.51 27.44
3/14/2016 13:00 to 12:10 27.52 27.36 27.42 27.40 27.41 27.42
3/14/2016 12:00 to 11:10 27.45 27.50 27.54 27.52 27.52 27.60
3/14/2016 11:00 to 10:10 27.56 27.60 27.62 27.70 27.66 27.70
3/14/2016 10:00 to 9:10 27.64 27.59 27.57 27.58 27.56 27.57
3/14/2016 09:00 to 8:10 27.65 27.56 27.59 27.61 27.63 27.58
3/14/2016 08:00 to 7:10 27.64 27.61 27.69 27.64 27.63 27.63
3/14/2016 07:00 to 6:10 27.68 27.73 27.80 27.71 27.71 27.83
3/14/2016 06:00 to 5:10 27.85 27.81 27.85 27.86 27.91 27.91
3/14/2016 05:00 to 4:10 27.93 27.99 27.99 27.97 28.01 27.96
3/14/2016 04:00 to 3:10 28.01 28.02 28.02 28.07 28.03 28.04
3/14/2016 03:00 to 2:10 28.06 28.06 28.05 28.01 28.10 28.10
3/14/2016 02:00 to 1:10 28.09 28.13 28.15 28.19 28.17 28.19
3/14/2016 01:00 to 0:10 28.18 28.22 28.24 28.21 28.21 28.30
3/14/2016 00:00 to 23:10 28.37 28.35 28.36 28.33 28.36 28.40
3/13/2016 23:00 to 22:10 28.36 28.32 28.34 28.35 28.27 28.26
3/13/2016 22:00 to 21:10 28.28 28.29 28.31 28.23 28.29 28.22
3/13/2016 21:00 to 20:10 28.26 28.22 28.11 28.14 28.10 28.25
3/13/2016 20:00 to 19:10 28.19 28.11 28.19 28.12 28.17 28.14
3/13/2016 19:00 to 18:10 28.05 28.05 28.05 28.02 28.01 28.01
3/13/2016 18:00 to 17:10 28.03 28.08 27.98 27.98 27.95 27.95
3/13/2016 17:00 to 16:10 27.89 27.89 27.77 27.83 27.79 27.83
3/13/2016 16:00 to 15:10 27.85 27.88 27.87 27.87 27.87 27.85
3/13/2016 15:00 to 14:10 27.85 27.84 27.82 27.87 27.95 28.01
3/13/2016 14:00 to 13:10 27.95 27.92 27.91 27.92 27.93 27.71
3/13/2016 13:00 to 12:10 27.70 27.41 27.33 27.29 27.29 27.33
3/13/2016 12:00 to 11:10 27.31 27.31 27.29 27.29 27.27 27.29
3/13/2016 11:00 to 10:10 27.20 27.20 27.19 27.18 27.23 27.22
3/13/2016 10:00 to 9:10 27.28 27.28 27.24 27.29 27.33 27.35
3/13/2016 09:00 to 8:10 27.38 27.38 27.38 27.41 27.46 27.56
3/13/2016 08:00 to 7:10 27.53 27.56 27.56 27.59 27.55 27.55
3/13/2016 07:00 to 6:10 27.64 27.72 27.72 27.74 27.85 27.90
3/13/2016 06:00 to 5:10 27.88 27.93 27.95 27.93 27.93 28.00
3/13/2016 05:00 to 4:10 28.04 28.01 28.00 27.96 27.93 28.01
3/13/2016 04:00 to 3:10 27.98 27.95 28.02 27.97 28.03 28.01
3/13/2016 03:00 to 2:10 28.05 28.04 28.06 28.07 28.15 28.08
3/13/2016 02:00 to 1:10 28.16 28.14 28.15 28.17 28.19 28.16
3/13/2016 01:00 to 0:10 28.15 28.09 28.15 28.09 28.08 28.19
3/13/2016 00:00 to 23:10 28.24 28.30 28.29 28.32 28.28 28.33
3/12/2016 23:00 to 22:10 28.33 28.29 28.28 28.28 28.23 28.19
3/12/2016 22:00 to 21:10 28.16 28.15 28.04 28.01 27.97 28.04
3/12/2016 21:00 to 20:10 28.04 28.02 -- -- -- --